Time;durP1;ratioP1;P1;durP2;ratioP2;P2;SDS_P1;SDS_P2;PMS_P1;PMS_P2;Temp;Humidity;BMP_temperature;BMP_pressure;BME280_temperature;BME280_humidity;BME280_pressure;Samples;Min_cycle;Max_cycle;Signal;HPM_P1;HPM_P2
2020/12/18 00:02:17;;;;;;;49.93;21.10;;;;;;;4.95;83.62;101753.89;127792;1091;104384;-75
2020/12/18 00:05:00;;;;;;;47.00;21.87;;;;;;;4.97;84.36;101754.94;127794;1091;104468;-77
2020/12/18 00:07:29;;;;;;;48.33;21.83;;;;;;;4.99;84.19;101748.16;127731;1091;104542;-75
2020/12/18 00:09:57;;;;;;;48.67;22.47;;;;;;;5.03;84.21;101750.22;127753;1092;104542;-76
2020/12/18 00:12:26;;;;;;;52.60;23.13;;;;;;;5.02;84.17;101743.19;127769;1091;104404;-75
2020/12/18 00:14:56;;;;;;;49.83;23.90;;;;;;;5.00;83.51;101744.77;127760;1092;104416;-75
2020/12/18 00:17:24;;;;;;;51.07;23.53;;;;;;;4.97;83.62;101743.61;127776;1091;104407;-76
2020/12/18 00:19:53;;;;;;;52.97;24.80;;;;;;;4.96;84.18;101737.51;127780;1092;104413;-76
2020/12/18 00:22:22;;;;;;;53.40;23.70;;;;;;;5.00;83.91;101749.98;127753;1092;104436;-76
2020/12/18 00:24:53;;;;;;;51.67;23.97;;;;;;;5.02;84.06;101743.19;127818;1091;104545;-76
2020/12/18 00:27:21;;;;;;;53.43;24.17;;;;;;;5.04;84.08;101740.70;127769;1091;104538;-75
2020/12/18 00:29:50;;;;;;;54.53;25.83;;;;;;;5.06;83.61;101744.33;127804;1091;105029;-75
2020/12/18 00:32:20;;;;;;;53.00;24.80;;;;;;;5.06;83.69;101746.03;127700;1092;104435;-75
2020/12/18 00:34:49;;;;;;;56.37;23.73;;;;;;;5.01;84.11;101738.76;127706;1091;104618;-76
2020/12/18 00:37:20;;;;;;;52.20;22.77;;;;;;;5.02;84.33;101740.59;127838;1091;104408;-74
2020/12/18 00:39:49;;;;;;;48.63;22.53;;;;;;;5.00;83.78;101749.98;127784;1092;104548;-75
2020/12/18 00:42:18;;;;;;;46.37;20.93;;;;;;;5.00;84.03;101742.17;127798;1092;104407;-77
2020/12/18 00:44:47;;;;;;;50.97;23.10;;;;;;;5.02;84.25;101743.19;127774;1091;104414;-77
2020/12/18 00:47:16;;;;;;;53.27;24.63;;;;;;;5.01;83.89;101743.97;127769;1091;104911;-78
2020/12/18 00:49:45;;;;;;;51.37;23.43;;;;;;;5.00;83.99;101747.38;127740;1091;104458;-77
2020/12/18 00:52:14;;;;;;;54.23;24.37;;;;;;;4.97;83.45;101744.53;127810;1093;104484;-76
2020/12/18 00:54:43;;;;;;;53.13;22.63;;;;;;;4.96;83.96;101734.91;127812;1091;104474;-78
2020/12/18 00:57:13;;;;;;;57.00;24.93;;;;;;;4.97;83.68;101743.61;127717;1092;104449;-78
2020/12/18 00:59:42;;;;;;;49.33;21.93;;;;;;;4.99;84.08;101744.66;127777;1091;103532;-77
2020/12/18 01:02:13;;;;;;;54.97;25.00;;;;;;;5.00;83.97;101738.64;127833;1091;104420;-74
2020/12/18 01:04:42;;;;;;;52.77;23.57;;;;;;;5.00;83.95;101736.97;127816;1091;104888;-75
2020/12/18 01:07:11;;;;;;;55.77;24.00;;;;;;;5.01;83.83;101733.56;127823;1091;104544;-74
2020/12/18 01:09:41;;;;;;;56.03;25.57;;;;;;;5.00;83.58;101734.38;127795;1092;104424;-74
2020/12/18 01:12:13;;;;;;;50.83;23.27;;;;;;;4.95;84.11;101725.27;127776;1092;104634;-75
2020/12/18 01:14:42;;;;;;;53.17;24.33;;;;;;;4.93;83.82;101725.97;127787;1091;104411;-75
2020/12/18 01:17:13;;;;;;;52.53;24.10;;;;;;;4.90;83.40;101723.12;127790;1093;104474;-76
2020/12/18 01:19:42;;;;;;;50.17;23.30;;;;;;;4.90;83.71;101721.42;127798;1092;104471;-75
2020/12/18 01:22:11;;;;;;;52.37;23.53;;;;;;;4.90;83.57;101721.42;127818;1091;104558;-75
2020/12/18 01:24:46;;;;;;;44.20;21.33;;;;;;;4.90;83.35;101721.42;127786;1091;104589;-75
2020/12/18 01:27:16;;;;;;;52.63;21.80;;;;;;;4.91;83.26;101717.11;127792;1091;104446;-75
2020/12/18 01:29:45;;;;;;;48.87;21.37;;;;;;;4.91;83.69;101717.11;127789;1092;104416;-75
2020/12/18 01:32:15;;;;;;;48.10;22.10;;;;;;;4.89;83.40;101716.99;127794;1092;104407;-77
2020/12/18 01:34:45;;;;;;;55.33;23.03;;;;;;;4.89;83.62;101718.70;127796;1091;104404;-76
2020/12/18 01:37:16;;;;;;;47.10;21.13;;;;;;;4.88;83.75;101714.27;127761;1091;104698;-76
2020/12/18 01:39:53;;;;;;;51.47;21.47;;;;;;;4.86;83.75;101715.08;127789;1092;104886;-76
2020/12/18 01:42:27;;;;;;;52.13;21.43;;;;;;;4.89;83.74;101718.70;127761;1091;104451;-75
2020/12/18 01:44:57;;;;;;;49.70;21.83;;;;;;;4.90;83.71;101720.52;127792;1092;104410;-77
2020/12/18 01:47:30;;;;;;;48.77;22.10;;;;;;;4.92;83.75;101717.23;127802;1092;104991;-76
2020/12/18 01:50:05;;;;;;;52.70;22.80;;;;;;;4.89;83.26;101722.20;127780;1091;104404;-77
2020/12/18 01:52:39;;;;;;;50.13;21.87;;;;;;;4.89;83.09;101716.99;127788;1091;104548;-77
2020/12/18 01:55:13;;;;;;;47.90;21.13;;;;;;;4.87;83.64;101715.98;127810;1091;104481;-77
2020/12/18 01:57:47;;;;;;;49.53;20.73;;;;;;;4.85;83.91;101709.77;127817;1091;104423;-75
2020/12/18 02:00:16;;;;;;;47.20;20.63;;;;;;;4.84;83.53;101713.14;127753;1092;104475;-75
2020/12/18 02:02:45;;;;;;;46.07;20.37;;;;;;;4.84;83.49;101703.63;127709;1092;104420;-76
2020/12/18 02:05:27;;;;;;;46.30;20.10;;;;;;;4.85;83.26;101708.05;127772;1092;104430;-76
2020/12/18 02:08:02;;;;;;;48.83;21.03;;;;;;;4.88;83.66;101712.60;127784;1091;104539;-77
2020/12/18 02:10:51;;;;;;;52.23;22.73;;;;;;;4.90;83.51;101711.02;127790;1091;104475;-75
2020/12/18 02:13:21;;;;;;;47.23;21.13;;;;;;;4.87;83.35;101708.17;127759;1092;104545;-76
2020/12/18 02:15:52;;;;;;;46.37;20.83;;;;;;;4.88;83.65;101710.00;127682;1092;104530;-75
2020/12/18 02:18:28;;;;;;;48.87;21.87;;;;;;;4.85;83.54;101710.66;127731;1091;104936;-75
2020/12/18 02:20:58;;;;;;;47.23;19.47;;;;;;;4.83;83.51;101720.05;127797;1092;104539;-77
2020/12/18 02:23:28;;;;;;;47.07;20.33;;;;;;;4.81;83.12;101718.09;127816;1091;104596;-77
2020/12/18 02:26:07;;;;;;;50.63;20.73;;;;;;;4.80;83.24;101717.20;127830;1091;104418;-76
2020/12/18 02:28:41;;;;;;;46.43;19.13;;;;;;;4.82;83.49;101720.82;127819;1091;104400;-75
2020/12/18 02:31:10;;;;;;;44.05;19.05;;;;;;;4.83;83.43;101720.05;127859;1091;104414;-75
2020/12/18 02:33:52;;;;;;;46.40;20.23;;;;;;;4.83;83.78;101722.64;127841;1091;104411;-75
2020/12/18 02:36:29;;;;;;;44.83;19.85;;;;;;;4.82;83.58;101718.22;127871;1092;104494;-75
2020/12/18 02:39:03;;;;;;;49.97;21.07;;;;;;;4.80;83.16;101718.88;127855;1091;104435;-75
2020/12/18 02:41:32;;;;;;;41.93;18.20;;;;;;;4.81;83.28;101712.90;127771;1092;104416;-75
2020/12/18 02:44:17;;;;;;;47.37;19.90;;;;;;;4.81;83.49;101723.30;127805;1091;104433;-76
2020/12/18 02:47:05;;;;;;;46.65;20.85;;;;;;;4.85;83.39;101721.06;127807;1091;104419;-76
2020/12/18 02:49:34;;;;;;;45.63;19.20;;;;;;;4.83;82.95;101721.72;127823;1092;104487;-76
2020/12/18 02:52:04;;;;;;;47.67;20.20;;;;;;;4.80;82.76;101722.41;127782;1092;104558;-75
2020/12/18 02:54:50;;;;;;;46.50;19.33;;;;;;;4.79;83.37;101719.69;127778;1092;104404;-75
2020/12/18 02:57:36;;;;;;;46.67;19.10;;;;;;;4.74;83.21;101724.52;127817;1091;104420;-75
2020/12/18 03:00:18;;;;;;;49.63;20.10;;;;;;;4.73;83.25;101725.30;127801;1091;104410;-76
2020/12/18 03:02:49;;;;;;;42.57;18.90;;;;;;;4.72;83.13;101725.17;127803;1092;104413;-76
2020/12/18 03:05:18;;;;;;;46.80;20.00;;;;;;;4.70;83.38;101732.86;127797;1091;104598;-77
2020/12/18 03:07:54;;;;;;;42.63;17.60;;;;;;;4.72;83.32;101735.58;127733;1091;104452;-76
2020/12/18 03:10:23;;;;;;;43.67;17.90;;;;;;;4.71;82.79;101738.98;127785;1091;104414;-76
2020/12/18 03:12:52;;;;;;;42.70;18.27;;;;;;;4.72;83.34;101743.38;127744;1091;104532;-76
2020/12/18 03:15:21;;;;;;;44.07;19.17;;;;;;;4.74;82.85;101744.43;127791;1091;104526;-75
2020/12/18 03:18:10;;;;;;;45.93;19.60;;;;;;;4.74;82.87;101736.62;127777;1092;104401;-75
2020/12/18 03:20:39;;;;;;;45.33;19.83;;;;;;;4.75;82.86;101741.02;127772;1091;104433;-76
2020/12/18 03:23:27;;;;;;;43.53;18.57;;;;;;;4.76;83.32;101743.74;127821;1091;104414;-76
2020/12/18 03:26:07;;;;;;;43.23;18.53;;;;;;;4.76;83.03;101743.74;127824;1091;104414;-75
2020/12/18 03:28:43;;;;;;;43.50;18.27;;;;;;;4.76;82.88;101746.34;127821;1091;104554;-76
2020/12/18 03:31:12;;;;;;;45.20;18.63;;;;;;;4.75;83.12;101734.12;127802;1092;104643;-75
2020/12/18 03:33:41;;;;;;;40.00;17.53;;;;;;;4.76;82.84;101742.84;127745;1092;104408;-76
2020/12/18 03:36:26;;;;;;;40.07;17.00;;;;;;;4.75;83.16;101738.42;127760;1091;104474;-76
2020/12/18 03:38:57;;;;;;;42.43;17.53;;;;;;;4.73;83.21;101740.00;127782;1092;104417;-76
2020/12/18 03:41:29;;;;;;;43.60;18.27;;;;;;;4.72;82.82;101735.58;127699;1091;104446;-76
2020/12/18 03:43:59;;;;;;;43.13;17.70;;;;;;;4.73;82.58;101742.60;127795;1091;104570;-76
2020/12/18 03:46:28;;;;;;;42.27;18.70;;;;;;;4.73;82.93;101740.90;127773;1091;104727;-76
2020/12/18 03:49:11;;;;;;;;;;;;;;;4.72;82.38;101740.78;127854;1092;104464;-76
2020/12/18 03:51:46;;;;;;;46.20;17.17;;;;;;;4.65;82.38;101740.30;127804;1092;104487;-76
2020/12/18 03:54:23;;;;;;;46.03;18.93;;;;;;;4.65;82.86;101734.20;127799;1092;104548;-75
2020/12/18 03:57:07;;;;;;;42.27;16.73;;;;;;;4.62;82.92;101745.25;127852;1091;104433;-77
2020/12/18 03:59:47;;;;;;;42.63;17.17;;;;;;;4.60;82.84;101746.83;127722;1093;104532;-76
2020/12/18 04:02:31;;;;;;;40.93;18.53;;;;;;;4.62;82.46;101747.84;127772;1091;104475;-76
2020/12/18 04:05:04;;;;;;;45.37;18.27;;;;;;;4.64;82.91;101746.30;127736;1091;104525;-77
2020/12/18 04:07:33;;;;;;;44.17;18.30;;;;;;;4.65;82.21;101742.89;127771;1091;104538;-76
2020/12/18 04:10:03;;;;;;;41.93;17.93;;;;;;;4.66;82.89;101747.31;127784;1092;104408;-76
2020/12/18 04:12:35;;;;;;;43.87;19.00;;;;;;;4.66;82.98;101749.91;127763;1092;104432;-76
2020/12/18 04:15:05;;;;;;;43.17;18.30;;;;;;;4.66;82.55;101741.22;127784;1092;104942;-77
2020/12/18 04:17:45;;;;;;;49.70;18.83;;;;;;;4.66;82.98;101742.12;127800;1092;104497;-76
2020/12/18 04:20:15;;;;;;;47.73;19.73;;;;;;;4.67;82.76;101736.14;127704;1091;104478;-77
2020/12/18 04:22:49;;;;;;;48.63;19.60;;;;;;;4.67;82.59;101738.74;127712;1092;104414;-75
2020/12/18 04:25:30;;;;;;;46.87;18.67;;;;;;;4.68;82.61;101740.53;127780;1091;104911;-74
2020/12/18 04:28:00;;;;;;;43.57;19.60;;;;;;;4.70;82.67;101739.76;127781;1092;104405;-74
2020/12/18 04:30:31;;;;;;;50.90;20.13;;;;;;;4.70;82.67;101738.05;127809;1091;104417;-74
2020/12/18 04:33:01;;;;;;;41.10;17.65;;;;;;;4.70;82.35;101737.16;127811;1091;104404;-74
2020/12/18 04:35:30;;;;;;;45.07;18.77;;;;;;;4.70;82.76;101732.86;127800;1091;104410;-75
2020/12/18 04:38:12;;;;;;;46.83;19.57;;;;;;;4.70;82.71;101737.16;127760;1092;104433;-76
2020/12/18 04:40:58;;;;;;;48.43;18.17;;;;;;;4.69;82.89;101733.66;127754;1092;104432;-75
2020/12/18 04:43:37;;;;;;;46.93;20.30;;;;;;;4.66;82.49;101729.12;127789;1092;104464;-75
2020/12/18 04:46:11;;;;;;;48.77;19.07;;;;;;;4.65;82.83;101734.20;127733;1091;104484;-76
2020/12/18 04:48:41;;;;;;;46.20;19.07;;;;;;;4.63;83.17;101735.78;127754;1091;104417;-77
2020/12/18 04:51:17;;;;;;;;;;;;;;;4.63;82.53;101740.98;127800;1091;104419;-75
2020/12/18 04:53:50;;;;;;;45.60;18.83;;;;;;;4.62;82.88;101741.75;127754;1091;104542;-75
2020/12/18 04:56:27;;;;;;;46.27;20.83;;;;;;;4.66;82.74;101747.31;127771;1091;104439;-75
2020/12/18 04:59:04;;;;;;;46.40;19.60;;;;;;;4.71;82.96;101744.19;127800;1092;104456;-76
2020/12/18 05:01:46;;;;;;;47.20;20.60;;;;;;;4.74;82.82;101747.03;127791;1091;104528;-74
2020/12/18 05:04:20;;;;;;;46.67;20.87;;;;;;;4.73;82.57;101748.70;127752;1091;104504;-75
2020/12/18 05:06:56;;;;;;;49.03;20.47;;;;;;;4.72;82.45;101752.11;127770;1092;104410;-75
2020/12/18 05:09:34;;;;;;;48.20;19.83;;;;;;;4.70;82.25;101748.45;127672;1092;104538;-75
2020/12/18 05:12:08;;;;;;;48.80;20.70;;;;;;;4.68;82.32;101750.04;127811;1092;104563;-74
2020/12/18 05:14:39;;;;;;;48.13;20.43;;;;;;;4.70;82.87;101751.05;127708;1092;104417;-75
2020/12/18 05:17:16;;;;;;;48.83;20.03;;;;;;;4.72;82.30;101751.17;127675;1091;104442;-75
2020/12/18 05:19:46;;;;;;;45.63;20.63;;;;;;;4.74;82.25;101747.92;127762;1092;104417;-75
2020/12/18 05:22:35;;;;;;;53.57;23.27;;;;;;;4.74;82.17;101765.23;127773;1091;104410;-76
2020/12/18 05:25:24;;;;;;;50.07;21.23;;;;;;;4.70;82.56;101756.26;127762;1091;104449;-76
2020/12/18 05:27:54;;;;;;;51.10;23.90;;;;;;;4.68;82.36;101761.34;127767;1091;104525;-77
2020/12/18 05:30:23;;;;;;;54.60;23.27;;;;;;;4.69;82.83;101770.06;127687;1092;104416;-76
2020/12/18 05:33:13;;;;;;;52.13;22.33;;;;;;;4.68;82.40;101763.94;127634;1092;104567;-77
2020/12/18 05:36:02;;;;;;;52.77;22.47;;;;;;;4.72;82.50;101771.98;127641;1091;104443;-77
2020/12/18 05:38:37;;;;;;;47.20;20.00;;;;;;;4.75;82.75;101772.23;127696;1091;104541;-76
2020/12/18 05:41:23;;;;;;;51.57;21.90;;;;;;;4.77;82.59;101776.77;127709;1091;104423;-77
2020/12/18 05:43:55;;;;;;;49.43;21.43;;;;;;;4.81;82.10;101777.91;127623;1091;104407;-76
2020/12/18 05:46:40;;;;;;;53.60;22.13;;;;;;;4.80;82.70;101781.29;127495;1091;104472;-75
2020/12/18 05:49:27;;;;;;;46.77;19.63;;;;;;;4.76;82.63;101782.75;127525;1092;104545;-76
2020/12/18 05:51:58;;;;;;;49.83;21.50;;;;;;;4.75;82.24;101780.03;127641;1092;104436;-75
2020/12/18 05:54:40;;;;;;;49.53;21.03;;;;;;;4.75;82.58;101790.42;127656;1092;104692;-75
2020/12/18 05:57:13;;;;;;;49.00;20.90;;;;;;;4.75;82.79;101777.42;127694;1092;104509;-75
2020/12/18 05:59:47;;;;;;;49.87;22.23;;;;;;;4.76;82.45;101787.05;127675;1091;104417;-76
2020/12/18 06:02:23;;;;;;;53.07;22.17;;;;;;;4.80;82.95;101781.29;127690;1092;104557;-75
2020/12/18 06:05:04;;;;;;;51.27;21.43;;;;;;;4.81;82.38;101789.22;127690;1092;104548;-74
2020/12/18 06:07:47;;;;;;;51.03;22.07;;;;;;;4.81;82.23;101791.81;127600;1092;104535;-76
2020/12/18 06:10:23;;;;;;;51.10;22.10;;;;;;;4.79;82.80;101784.70;127453;1091;104470;-77
2020/12/18 06:13:05;;;;;;;54.00;21.87;;;;;;;4.78;82.76;101788.08;127470;1092;104432;-77
2020/12/18 06:15:55;;;;;;;52.07;22.53;;;;;;;4.80;82.34;101791.69;127514;1092;104411;-75
2020/12/18 06:18:38;;;;;;;48.87;21.07;;;;;;;4.77;82.23;101794.05;127609;1092;104638;-76
2020/12/18 06:21:12;;;;;;;50.17;20.40;;;;;;;4.77;82.38;101796.65;127529;1092;104404;-75
2020/12/18 06:23:45;;;;;;;50.40;20.53;;;;;;;4.80;82.45;101796.89;127527;1091;104430;-76
2020/12/18 06:26:28;;;;;;;50.83;20.73;;;;;;;4.84;82.50;101794.66;127598;1091;104426;-74
2020/12/18 06:29:19;;;;;;;48.00;21.33;;;;;;;4.89;82.67;101802.83;127604;1092;104414;-74
2020/12/18 06:32:21;;;;;;;46.70;20.40;;;;;;;4.89;82.52;101797.62;127665;1091;104449;-74
2020/12/18 06:35:30;;;;;;;52.70;22.50;;;;;;;4.86;82.31;101800.91;127653;1092;104539;-75
2020/12/18 06:38:26;;;;;;;48.87;21.63;;;;;;;4.86;82.33;101806.11;127477;1092;104561;-75
2020/12/18 06:41:22;;;;;;;50.33;20.70;;;;;;;4.90;82.46;101802.05;127312;1091;104552;-73
2020/12/18 06:44:30;;;;;;;47.10;20.70;;;;;;;4.89;81.93;101805.43;127448;1092;104875;-76
2020/12/18 06:47:13;;;;;;;47.13;20.20;;;;;;;4.89;81.96;101801.93;127448;1091;104503;-74
2020/12/18 06:50:14;;;;;;;49.43;20.33;;;;;;;4.90;82.52;101806.36;127588;1091;104420;-73
2020/12/18 06:52:59;;;;;;;53.10;23.47;;;;;;;4.90;82.56;101809.86;127558;1092;104486;-75
2020/12/18 06:55:42;;;;;;;47.05;22.15;;;;;;;4.87;82.65;101809.61;127594;1091;104865;-75
2020/12/18 06:58:33;;;;;;;51.23;23.10;;;;;;;4.91;81.99;101813.36;127475;1092;104481;-74
2020/12/18 07:01:03;;;;;;;49.83;21.50;;;;;;;4.95;82.43;101816.32;127489;1092;104410;-73
2020/12/18 07:03:39;;;;;;;44.77;21.47;;;;;;;5.00;82.11;101816.69;127439;1092;104618;-76
2020/12/18 07:06:11;;;;;;;49.40;21.50;;;;;;;5.01;82.36;101814.20;127199;1092;104786;-75
2020/12/18 07:08:41;;;;;;;49.25;22.30;;;;;;;5.02;82.07;101813.43;127252;1091;104507;-76
2020/12/18 07:11:14;;;;;;;48.53;22.73;;;;;;;5.03;82.30;101816.93;127274;1091;104536;-75
2020/12/18 07:13:47;;;;;;;45.37;19.77;;;;;;;5.04;82.07;101824.86;127358;1091;104523;-76
2020/12/18 07:16:19;;;;;;;45.83;21.30;;;;;;;5.00;81.87;101817.62;128894;1092;102459;-75
2020/12/18 07:18:58;;;;;;;45.23;19.73;;;;;;;5.00;82.32;101815.02;127439;1092;104647;-76
2020/12/18 07:21:27;;;;;;;44.27;18.63;;;;;;;5.00;82.02;101817.62;127525;1092;104414;-75
2020/12/18 07:23:57;;;;;;;41.87;18.17;;;;;;;5.01;81.72;101810.70;127604;1092;104433;-76
2020/12/18 07:26:26;;;;;;;44.60;19.47;;;;;;;5.04;82.12;101816.16;127468;1092;104404;-76
2020/12/18 07:28:56;;;;;;;44.77;19.10;;;;;;;5.06;82.19;101813.67;127405;1091;104548;-74
2020/12/18 07:31:27;;;;;;;42.57;19.03;;;;;;;5.09;81.85;101819.13;127495;1092;104742;-74
2020/12/18 07:33:58;;;;;;;42.03;18.73;;;;;;;5.07;81.83;101825.91;127483;1092;104540;-76
2020/12/18 07:36:30;;;;;;;;;;;;;;;5.06;81.83;101827.58;127537;1092;104433;-73
2020/12/18 07:39:01;;;;;;;42.10;18.47;;;;;;;5.00;82.21;101825.42;127527;1092;104516;-75
2020/12/18 07:41:33;;;;;;;40.65;17.20;;;;;;;4.99;81.88;101828.80;127527;1091;104410;-75
2020/12/18 07:44:06;;;;;;;41.17;17.43;;;;;;;5.00;81.75;101837.50;127530;1092;104515;-75
2020/12/18 07:46:38;;;;;;;39.95;17.95;;;;;;;5.01;82.16;101835.02;127650;1092;104439;-76
2020/12/18 07:49:12;;;;;;;35.63;15.37;;;;;;;5.02;81.97;101835.95;127625;1092;104483;-73
2020/12/18 07:51:42;;;;;;;37.10;16.33;;;;;;;4.98;81.82;101837.37;127487;1092;104441;-75
2020/12/18 07:54:20;;;;;;;40.97;18.10;;;;;;;4.98;82.04;101829.57;127544;1091;104538;-75
2020/12/18 07:56:50;;;;;;;42.10;18.63;;;;;;;5.02;82.39;101829.04;127457;1092;104529;-76
2020/12/18 07:59:21;;;;;;;43.47;18.20;;;;;;;5.04;82.13;101837.86;127523;1092;104432;-76
2020/12/18 08:01:51;;;;;;;43.17;18.73;;;;;;;5.04;82.10;101836.97;127565;1091;104412;-74
2020/12/18 08:04:21;;;;;;;44.17;18.47;;;;;;;5.08;82.13;101839.04;127539;1092;104413;-75
2020/12/18 08:06:51;;;;;;;45.90;20.63;;;;;;;5.14;82.42;101842.12;127475;1091;104410;-75
2020/12/18 08:09:20;;;;;;;37.03;16.60;;;;;;;5.16;82.06;101837.94;127510;1092;104413;-75
2020/12/18 08:11:50;;;;;;;38.23;17.73;;;;;;;5.17;81.76;101839.77;127502;1093;104423;-76
2020/12/18 08:14:23;;;;;;;40.60;17.83;;;;;;;5.19;81.75;101847.70;127397;1093;104430;-77
2020/12/18 08:16:57;;;;;;;48.70;22.50;;;;;;;5.23;81.94;101841.92;127288;1092;104436;-77
2020/12/18 08:19:26;;;;;;;43.80;19.93;;;;;;;5.28;81.67;101843.18;127440;1092;104622;-78
2020/12/18 08:21:59;;;;;;;49.20;21.65;;;;;;;5.30;81.84;101838.09;127507;1091;104562;-78
2020/12/18 08:24:34;;;;;;;42.47;18.97;;;;;;;5.31;81.75;101842.53;127366;1091;104439;-78
2020/12/18 08:27:09;;;;;;;38.73;17.37;;;;;;;5.32;81.47;101837.44;127417;1091;104487;-77
2020/12/18 08:29:39;;;;;;;42.27;17.90;;;;;;;5.36;81.49;101834.30;127573;1091;104475;-75
2020/12/18 08:32:12;;;;;;;41.50;17.20;;;;;;;5.44;81.67;101837.50;127540;1092;104433;-75
2020/12/18 08:34:44;;;;;;;38.53;17.12;;;;;;;5.52;81.49;101830.28;127424;1092;104433;-75
2020/12/18 08:37:24;;;;;;;40.03;18.20;;;;;;;5.60;81.70;101836.98;127457;1092;104486;-75
2020/12/18 08:39:54;;;;;;;38.80;16.97;;;;;;;5.63;81.32;101833.72;127589;1092;104981;-76
2020/12/18 08:42:23;;;;;;;40.50;18.73;;;;;;;5.64;81.52;101832.91;127425;1091;104552;-80
2020/12/18 08:44:55;;;;;;;43.47;19.17;;;;;;;5.66;81.50;101834.85;127411;1092;104539;-78
2020/12/18 08:47:25;;;;;;;41.73;18.37;;;;;;;5.70;81.67;101823.89;127264;1091;104519;-78
2020/12/18 08:50:11;;;;;;;42.83;18.73;;;;;;;5.69;81.19;101818.56;127293;1092;104417;-77
2020/12/18 08:52:54;;;;;;;38.20;16.37;;;;;;;5.72;81.44;101824.01;127767;1091;104640;-78
2020/12/18 08:55:25;;;;;;;38.70;17.10;;;;;;;5.73;81.50;101824.13;127440;1091;104435;-74
2020/12/18 08:58:06;;;;;;;36.53;16.67;;;;;;;5.78;81.31;101818.34;127531;1092;104524;-76
2020/12/18 09:00:36;;;;;;;38.73;18.13;;;;;;;5.75;80.98;101822.53;127473;1092;104554;-76
2020/12/18 09:03:06;;;;;;;39.20;18.93;;;;;;;5.75;81.18;101819.03;127535;1092;104574;-76
2020/12/18 09:05:38;;;;;;;42.17;19.80;;;;;;;5.79;81.07;101818.45;127288;1092;104439;-77
2020/12/18 09:08:19;;;;;;;38.80;18.27;;;;;;;5.84;81.44;101814.49;127409;1093;104538;-75
2020/12/18 09:10:56;;;;;;;45.40;19.63;;;;;;;5.89;81.41;101815.77;127259;1093;104567;-77
2020/12/18 09:13:29;;;;;;;40.83;17.87;;;;;;;5.94;81.47;101803.98;127423;1092;104570;-77
2020/12/18 09:16:09;;;;;;;36.47;16.93;;;;;;;5.99;81.35;101796.55;127344;1093;104598;-76
2020/12/18 09:18:41;;;;;;;41.00;18.60;;;;;;;6.00;80.98;101798.38;127259;1092;104423;-78
2020/12/18 09:21:12;;;;;;;42.73;17.90;;;;;;;6.00;81.05;101805.27;127627;1091;104413;-78
2020/12/18 09:23:44;;;;;;;43.17;18.83;;;;;;;6.02;81.31;101795.89;128513;1092;104539;-75
2020/12/18 09:26:25;;;;;;;37.77;18.30;;;;;;;6.02;81.18;101794.17;127478;1091;104608;-77
2020/12/18 09:28:54;;;;;;;40.57;18.07;;;;;;;5.98;80.99;101791.23;127392;1092;104474;-73
2020/12/18 09:31:24;;;;;;;41.27;17.43;;;;;;;5.99;80.96;101788.73;127390;1091;104421;-76
2020/12/18 09:33:53;;;;;;;46.23;20.03;;;;;;;5.97;81.09;101800.75;127379;1092;104442;-77
2020/12/18 09:36:24;;;;;;;43.23;18.90;;;;;;;6.01;81.15;101788.84;127341;1092;104698;-78
2020/12/18 09:38:53;;;;;;;41.00;18.63;;;;;;;6.04;81.08;101792.58;127366;1092;104561;-77
2020/12/18 09:41:27;;;;;;;39.33;18.33;;;;;;;6.09;81.23;101795.53;127414;1093;104477;-75
2020/12/18 09:43:58;;;;;;;41.07;18.87;;;;;;;6.11;81.30;101792.26;127588;1091;104474;-77
2020/12/18 09:46:29;;;;;;;40.67;18.77;;;;;;;6.10;81.11;101787.83;128414;1092;104443;-75
2020/12/18 09:48:59;;;;;;;39.43;17.80;;;;;;;6.05;80.75;101789.20;127632;1092;104432;-77
2020/12/18 09:51:29;;;;;;;40.33;18.93;;;;;;;5.97;80.61;101785.12;127507;1091;104407;-75
2020/12/18 09:53:59;;;;;;;38.90;17.45;;;;;;;5.95;80.61;101781.44;127691;1091;104410;-75
2020/12/18 09:56:29;;;;;;;36.73;15.73;;;;;;;5.94;80.62;101775.33;127548;1093;104378;-74
2020/12/18 09:59:06;;;;;;;40.43;18.13;;;;;;;5.96;80.66;101778.05;127537;1092;104404;-75
2020/12/18 10:01:39;;;;;;;43.73;20.00;;;;;;;6.00;80.60;101779.20;127532;1092;104407;-75
2020/12/18 10:04:15;;;;;;;43.13;19.73;;;;;;;6.01;80.79;101781.03;127501;1092;104554;-75
2020/12/18 10:06:48;;;;;;;39.00;18.70;;;;;;;6.00;80.98;101777.53;127574;1092;104475;-74
2020/12/18 10:09:28;;;;;;;42.60;17.77;;;;;;;5.98;80.67;101775.59;127653;1092;104551;-75
2020/12/18 10:11:59;;;;;;;37.90;16.35;;;;;;;5.98;80.90;101779.09;127466;1092;104449;-76
2020/12/18 10:14:29;;;;;;;36.97;17.40;;;;;;;6.00;80.64;101779.20;127496;1091;106010;-74
2020/12/18 10:17:03;;;;;;;39.33;18.23;;;;;;;6.05;81.06;101776.16;127455;1091;104537;-76
2020/12/18 10:19:34;;;;;;;40.00;19.10;;;;;;;6.11;81.01;101784.44;127490;1091;104426;-78
2020/12/18 10:22:04;;;;;;;43.03;19.43;;;;;;;6.17;81.08;101780.46;127396;1092;104514;-75
2020/12/18 10:24:34;;;;;;;48.23;21.53;;;;;;;6.21;81.02;101777.30;127431;1091;104413;-75
2020/12/18 10:27:04;;;;;;;42.13;19.20;;;;;;;6.19;80.91;101779.80;127426;1091;104558;-75
2020/12/18 10:29:34;;;;;;;48.57;20.73;;;;;;;6.16;80.80;101773.45;127569;1092;104403;-74
2020/12/18 10:32:07;;;;;;;43.90;20.95;;;;;;;6.15;81.04;101774.24;127207;1091;104868;-74
2020/12/18 10:34:39;;;;;;;44.40;19.50;;;;;;;6.16;80.99;101778.67;127563;1092;105251;-75
2020/12/18 10:37:09;;;;;;;41.97;19.07;;;;;;;6.14;80.81;101772.41;127353;1092;104615;-74
2020/12/18 10:39:38;;;;;;;46.83;20.63;;;;;;;6.09;80.99;101770.40;127310;1091;104448;-76
2020/12/18 10:42:09;;;;;;;37.47;17.33;;;;;;;6.10;80.43;101772.19;127386;1092;104646;-76
2020/12/18 10:44:42;;;;;;;42.77;18.47;;;;;;;6.02;80.42;101770.72;127278;1092;104720;-76
2020/12/18 10:47:17;;;;;;;43.20;19.53;;;;;;;5.99;80.80;101760.07;128850;1092;102618;-76
2020/12/18 10:49:46;;;;;;;43.07;19.03;;;;;;;6.06;80.77;101761.42;127492;1092;104583;-77
2020/12/18 10:52:15;;;;;;;42.60;19.13;;;;;;;6.10;80.51;101761.77;127417;1091;104484;-77
2020/12/18 10:54:48;;;;;;;41.30;18.83;;;;;;;6.15;80.66;101753.39;127358;1091;104410;-76
2020/12/18 10:57:18;;;;;;;43.17;20.13;;;;;;;6.20;80.75;101758.16;126791;1094;104634;-75
2020/12/18 10:59:48;;;;;;;42.77;18.97;;;;;;;6.20;80.46;101759.84;127113;1092;104624;-77
2020/12/18 11:02:18;;;;;;;44.77;19.30;;;;;;;6.17;80.54;101755.33;127084;1093;104554;-78
2020/12/18 11:04:47;;;;;;;47.40;20.17;;;;;;;6.17;80.48;101755.33;127195;1092;104910;-77
2020/12/18 11:07:16;;;;;;;46.97;20.77;;;;;;;6.18;80.70;101759.72;127161;1091;104619;-78
2020/12/18 11:09:46;;;;;;;48.17;21.30;;;;;;;6.20;80.75;101755.55;127174;1093;104436;-75
2020/12/18 11:12:18;;;;;;;42.00;19.43;;;;;;;6.24;80.45;101760.17;127264;1091;104439;-75
2020/12/18 11:14:49;;;;;;;42.67;20.00;;;;;;;6.23;80.56;101763.59;127300;1092;103404;-75
2020/12/18 11:17:19;;;;;;;51.20;21.60;;;;;;;6.27;80.73;101755.19;127309;1091;104942;-77
2020/12/18 11:19:48;;;;;;;43.10;20.27;;;;;;;6.32;80.81;101759.84;127222;1092;104445;-75
2020/12/18 11:22:17;;;;;;;46.67;21.47;;;;;;;6.39;80.64;101755.19;127027;1093;104500;-76
2020/12/18 11:24:46;;;;;;;49.43;19.97;;;;;;;6.47;80.78;101751.42;127143;1092;104621;-76
2020/12/18 11:27:15;;;;;;;44.37;20.47;;;;;;;6.48;80.69;101755.85;127133;1093;104531;-75
2020/12/18 11:29:44;;;;;;;42.67;21.53;;;;;;;6.47;80.54;101754.03;127283;1092;104510;-78
2020/12/18 11:32:16;;;;;;;47.07;20.40;;;;;;;6.45;80.31;101747.81;127194;1092;104599;-76
2020/12/18 11:34:45;;;;;;;43.37;19.97;;;;;;;6.42;79.99;101757.09;128262;1092;104441;-76